Time;durP1;ratioP1;P1;durP2;ratioP2;P2;SDS_P1;SDS_P2;PMS_P1;PMS_P2;Temp;Humidity;BMP_temperature;BMP_pressure;BME280_temperature;BME280_humidity;BME280_pressure;Samples;Min_cycle;Max_cycle;Signal;HPM_P1;HPM_P2
2023/05/02 00:00:12;;;;;;;5.80;5.30;;;11.60;99.90;;;;;;5053782;28;20913;-84
2023/05/02 00:02:38;;;;;;;6.10;5.57;;;11.60;99.90;;;;;;5055497;28;20886;-84
2023/05/02 00:05:05;;;;;;;6.87;6.20;;;11.60;99.90;;;;;;5073155;28;20423;-83
2023/05/02 00:07:31;;;;;;;6.40;5.90;;;11.50;99.90;;;;;;5065149;28;20391;-83
2023/05/02 00:09:56;;;;;;;6.30;5.80;;;11.50;99.90;;;;;;5059858;28;20428;-84
2023/05/02 00:12:22;;;;;;;6.30;5.80;;;11.60;99.90;;;;;;5037349;28;20412;-84
2023/05/02 00:14:47;;;;;;;8.50;5.68;;;11.60;99.90;;;;;;5038512;28;20476;-84
2023/05/02 00:17:19;;;;;;;6.40;5.90;;;11.70;99.90;;;;;;5039833;28;20494;-84
2023/05/02 00:19:46;;;;;;;6.80;6.30;;;11.60;99.90;;;;;;5072054;28;20392;-84
2023/05/02 00:22:11;;;;;;;5.90;5.40;;;11.50;99.90;;;;;;5056328;28;20445;-83
2023/05/02 00:24:37;;;;;;;7.00;6.40;;;11.60;99.90;;;;;;5073601;28;20388;-83
2023/05/02 00:27:03;;;;;;;6.40;5.80;;;11.60;99.90;;;;;;5060403;28;20405;-84
2023/05/02 00:29:29;;;;;;;6.35;5.80;;;11.60;99.90;;;;;;5034705;28;20389;-84
2023/05/02 00:31:55;;;;;;;5.90;5.50;;;11.60;99.90;;;;;;5052262;28;20405;-84
2023/05/02 00:34:21;;;;;;;6.85;5.88;;;11.60;99.90;;;;;;5036250;28;20715;-82
2023/05/02 00:36:49;;;;;;;6.20;5.60;;;11.60;99.90;;;;;;5045056;28;20480;-83
2023/05/02 00:39:15;;;;;;;6.18;5.63;;;11.60;99.90;;;;;;5067025;28;20399;-83
2023/05/02 00:41:40;;;;;;;6.23;5.63;;;11.50;99.90;;;;;;5043010;28;20397;-84
2023/05/02 00:44:07;;;;;;;6.73;6.03;;;11.50;99.90;;;;;;5054976;28;20396;-84
2023/05/02 00:46:33;;;;;;;7.00;6.30;;;11.50;99.90;;;;;;5055584;28;20389;-84
2023/05/02 00:49:00;;;;;;;6.53;6.03;;;11.50;99.90;;;;;;5037394;28;20476;-84
2023/05/02 00:51:26;;;;;;;6.07;5.47;;;11.50;99.90;;;;;;5043796;28;20399;-84
2023/05/02 00:53:51;;;;;;;6.50;5.65;;;11.50;99.90;;;;;;5080991;28;20383;-83
2023/05/02 00:56:17;;;;;;;7.25;5.95;;;11.40;99.90;;;;;;5052430;28;20400;-84
2023/05/02 00:58:43;;;;;;;7.63;6.50;;;11.30;99.90;;;;;;5055379;28;20393;-83
2023/05/02 01:01:25;;;;;;;6.70;6.10;;;11.40;99.90;;;;;;5037166;28;20408;-83
2023/05/02 01:03:55;;;;;;;6.40;5.90;;;11.40;99.90;;;;;;5054865;28;20404;-83
2023/05/02 01:06:40;;;;;;;6.30;5.80;;;11.50;99.90;;;;;;5046692;28;20395;-84
2023/05/02 01:09:21;;;;;;;9.00;6.50;;;11.40;99.90;;;;;;5065467;28;20397;-83
2023/05/02 01:11:58;;;;;;;6.70;6.10;;;11.50;99.90;;;;;;5039482;28;20433;-83
2023/05/02 01:14:26;;;;;;;6.72;6.13;;;11.50;99.90;;;;;;5038779;28;20385;-84
2023/05/02 01:16:53;;;;;;;6.50;5.90;;;11.50;99.90;;;;;;5059483;28;20398;-82
2023/05/02 01:19:28;;;;;;;6.55;6.05;;;11.60;99.90;;;;;;5079926;28;20794;-82
2023/05/02 01:21:56;;;;;;;6.22;5.72;;;11.60;99.90;;;;;;5080538;28;20410;-82
2023/05/02 01:24:27;;;;;;;6.20;5.60;;;11.60;99.90;;;;;;5079628;28;20428;-83
2023/05/02 01:27:23;;;;;;;6.50;5.90;;;11.50;99.90;;;;;;5069313;28;20453;-84
2023/05/02 01:29:50;;;;;;;6.70;6.20;;;11.60;99.90;;;;;;5060710;28;20388;-83
2023/05/02 01:32:17;;;;;;;6.70;6.20;;;11.50;99.90;;;;;;5059064;28;20503;-84
2023/05/02 01:34:44;;;;;;;7.10;6.25;;;11.60;99.90;;;;;;5040507;28;20397;-83
2023/05/02 01:37:12;;;;;;;6.70;6.10;;;11.60;99.90;;;;;;5038657;28;20515;-83
2023/05/02 01:39:39;;;;;;;6.43;5.85;;;11.60;99.90;;;;;;5039382;28;20521;-84
2023/05/02 01:42:05;;;;;;;6.90;6.30;;;11.70;99.90;;;;;;5054740;28;20403;-83
2023/05/02 01:44:34;;;;;;;6.95;5.75;;;11.70;99.90;;;;;;5039397;28;20389;-83
2023/05/02 01:47:02;;;;;;;6.53;6.00;;;11.70;99.90;;;;;;5057229;28;20436;-84
2023/05/02 01:49:30;;;;;;;6.40;5.80;;;11.60;99.90;;;;;;5039172;28;20419;-83
2023/05/02 01:52:02;;;;;;;7.32;6.72;;;11.60;99.90;;;;;;5039600;28;20413;-84
2023/05/02 01:54:28;;;;;;;6.63;6.03;;;11.50;99.90;;;;;;5039651;28;20468;-84
2023/05/02 01:56:54;;;;;;;5.93;5.53;;;11.60;99.90;;;;;;5056696;28;20484;-84
2023/05/02 01:59:22;;;;;;;5.78;5.28;;;11.60;99.90;;;;;;5038694;28;20389;-84
2023/05/02 02:01:50;;;;;;;6.00;5.50;;;11.60;99.90;;;;;;5039399;28;20393;-83
2023/05/02 02:04:18;;;;;;;6.30;5.65;;;11.50;99.90;;;;;;5056912;28;20732;-84
2023/05/02 02:06:47;;;;;;;6.30;5.80;;;11.50;99.90;;;;;;5073622;28;20402;-84
2023/05/02 02:09:13;;;;;;;6.40;5.80;;;11.60;99.90;;;;;;5075909;28;20384;-83
2023/05/02 02:12:07;;;;;;;6.13;5.63;;;11.60;99.90;;;;;;5094941;28;20418;-83
2023/05/02 02:14:37;;;;;;;6.60;6.00;;;11.50;99.90;;;;;;5090049;28;20401;-83
2023/05/02 02:17:13;;;;;;;6.60;6.00;;;11.50;99.90;;;;;;5076443;28;20393;-83
2023/05/02 02:19:40;;;;;;;6.25;5.75;;;11.40;99.90;;;;;;5076450;28;20397;-84
2023/05/02 02:22:07;;;;;;;6.95;6.35;;;11.40;99.90;;;;;;5075749;28;20385;-83
2023/05/02 02:24:35;;;;;;;6.65;6.15;;;11.30;99.90;;;;;;5083038;28;20403;-83
2023/05/02 02:27:01;;;;;;;6.90;6.30;;;11.40;99.90;;;;;;5077736;28;20390;-83
2023/05/02 02:29:27;;;;;;;6.88;6.28;;;11.40;99.90;;;;;;5080450;28;20385;-82
2023/05/02 02:31:52;;;;;;;7.05;6.50;;;11.30;99.90;;;;;;5076296;28;20408;-83
2023/05/02 02:34:19;;;;;;;6.10;5.50;;;11.20;99.90;;;;;;5056266;28;20413;-84
2023/05/02 02:36:55;;;;;;;6.90;6.20;;;11.20;99.90;;;;;;5043958;28;20386;-83
2023/05/02 02:39:29;;;;;;;6.72;6.15;;;11.20;99.90;;;;;;5078198;28;20387;-83
2023/05/02 02:42:08;;;;;;;6.35;5.85;;;11.30;99.90;;;;;;5077165;28;20407;-82
2023/05/02 02:44:51;;;;;;;6.43;5.93;;;11.20;99.90;;;;;;5078757;28;20465;-83
2023/05/02 02:47:28;;;;;;;6.70;6.00;;;11.10;99.90;;;;;;5096090;28;20396;-83
2023/05/02 02:50:30;;;;;;;6.75;6.15;;;11.10;99.90;;;;;;5078325;28;20383;-83
2023/05/02 02:53:13;;;;;;;7.00;6.40;;;11.10;99.90;;;;;;5071688;28;20468;-83
2023/05/02 02:55:47;;;;;;;6.72;6.13;;;11.00;99.90;;;;;;5088174;28;20383;-83
2023/05/02 02:58:44;;;;;;;6.88;6.28;;;10.90;99.90;;;;;;5085503;28;20392;-83
2023/05/02 03:01:15;;;;;;;7.20;6.50;;;10.80;99.90;;;;;;5032259;28;20401;-82
2023/05/02 03:03:43;;;;;;;8.50;6.70;;;10.80;99.90;;;;;;5058805;28;20840;-83
2023/05/02 03:06:08;;;;;;;6.70;6.20;;;10.90;99.90;;;;;;5074013;28;20384;-83
2023/05/02 03:08:39;;;;;;;7.60;6.90;;;10.90;99.90;;;;;;5073481;28;20420;-84
2023/05/02 03:11:04;;;;;;;7.22;6.53;;;10.80;99.90;;;;;;5075272;28;20440;-83
2023/05/02 03:13:30;;;;;;;6.97;6.37;;;10.80;99.90;;;;;;5074862;28;20553;-83
2023/05/02 03:16:14;;;;;;;6.85;6.35;;;10.80;99.90;;;;;;5074779;28;20413;-84
2023/05/02 03:18:40;;;;;;;7.37;6.77;;;10.80;99.90;;;;;;5080046;28;20800;-83
2023/05/02 03:21:06;;;;;;;7.72;7.13;;;10.80;99.90;;;;;;5083449;22;20498;-84
2023/05/02 03:23:31;;;;;;;7.73;7.13;;;10.80;99.90;;;;;;5055183;28;20925;-84
2023/05/02 03:25:57;;;;;;;7.10;6.50;;;11.60;99.90;;;;;;5073831;28;20509;-84
2023/05/02 03:28:22;;;;;;;7.28;6.68;;;10.70;99.90;;;;;;5069921;28;20383;-83
2023/05/02 03:30:48;;;;;;;7.43;6.83;;;10.70;99.90;;;;;;5069661;28;20382;-84
2023/05/02 03:33:13;;;;;;;8.00;7.40;;;10.60;99.90;;;;;;5025875;28;20455;-82
2023/05/02 03:35:38;;;;;;;7.32;6.63;;;10.60;99.90;;;;;;5017096;28;20470;-83
2023/05/02 03:38:04;;;;;;;7.20;6.60;;;10.60;99.90;;;;;;5036187;28;20489;-84
2023/05/02 03:40:29;;;;;;;6.97;6.20;;;10.70;99.90;;;;;;5054029;28;20374;-82
2023/05/02 03:42:55;;;;;;;7.30;6.60;;;10.70;99.90;;;;;;5054337;28;20389;-83
2023/05/02 03:45:20;;;;;;;7.00;6.40;;;10.70;99.90;;;;;;5036165;28;20390;-82
2023/05/02 03:47:46;;;;;;;7.43;6.73;;;10.80;99.90;;;;;;5054177;28;20748;-82
2023/05/02 03:50:11;;;;;;;7.40;6.80;;;10.80;99.90;;;;;;5035331;28;20417;-82
2023/05/02 03:52:37;;;;;;;8.10;7.40;;;10.80;99.90;;;;;;5015424;28;20434;-82
2023/05/02 03:55:03;;;;;;;7.90;7.30;;;10.90;99.90;;;;;;5051625;28;20523;-82
2023/05/02 03:57:31;;;;;;;7.30;6.70;;;11.00;99.90;;;;;;5029769;28;20379;-81
2023/05/02 03:59:57;;;;;;;6.70;6.20;;;11.00;99.90;;;;;;5032011;28;20924;-82
2023/05/02 04:02:24;;;;;;;7.00;6.23;;;11.10;99.90;;;;;;5048029;28;20406;-81
2023/05/02 04:04:49;;;;;;;7.47;6.88;;;11.10;99.90;;;;;;5032181;28;20488;-82
2023/05/02 04:07:18;;;;;;;7.32;6.63;;;11.00;99.90;;;;;;5032500;28;20797;-82
2023/05/02 04:09:46;;;;;;;6.50;6.00;;;11.10;99.90;;;;;;5031634;28;20386;-82
2023/05/02 04:12:13;;;;;;;6.10;5.60;;;11.10;99.90;;;;;;5015336;28;20449;-82
2023/05/02 04:14:39;;;;;;;6.90;6.40;;;11.20;99.90;;;;;;5035036;28;20906;-82
2023/05/02 04:17:05;;;;;;;6.60;6.00;;;11.20;99.90;;;;;;5035631;28;20385;-81
2023/05/02 04:19:31;;;;;;;6.30;5.70;;;11.20;99.90;;;;;;5052572;28;20378;-82
2023/05/02 04:21:57;;;;;;;6.63;6.10;;;11.20;99.90;;;;;;5048437;28;20417;-82
2023/05/02 04:24:22;;;;;;;7.30;5.97;;;11.20;99.90;;;;;;5021028;28;20427;-83
2023/05/02 04:26:48;;;;;;;6.07;5.57;;;11.10;99.90;;;;;;5034106;28;20385;-82
2023/05/02 04:29:14;;;;;;;6.40;5.80;;;11.10;99.90;;;;;;5034120;28;20392;-82
2023/05/02 04:31:39;;;;;;;6.70;6.00;;;11.10;99.90;;;;;;5051539;28;20546;-83
2023/05/02 04:34:06;;;;;;;7.30;5.53;;;11.00;99.90;;;;;;5047448;28;20399;-83
2023/05/02 04:36:32;;;;;;;6.70;6.10;;;11.00;99.90;;;;;;5035078;28;20389;-82
2023/05/02 04:38:58;;;;;;;6.70;6.15;;;10.90;99.90;;;;;;5033597;28;20397;-83
2023/05/02 04:41:24;;;;;;;6.60;6.00;;;10.80;99.90;;;;;;5051141;28;20373;-83
2023/05/02 04:43:49;;;;;;;7.00;6.40;;;10.90;99.90;;;;;;5051035;28;20755;-82
2023/05/02 04:46:17;;;;;;;6.90;6.30;;;10.80;99.90;;;;;;5025536;28;20447;-81
2023/05/02 04:48:43;;;;;;;6.50;6.00;;;10.90;99.90;;;;;;5061731;28;20395;-83
2023/05/02 04:51:09;;;;;;;7.07;6.40;;;10.90;99.90;;;;;;5018966;28;20379;-83
2023/05/02 04:53:35;;;;;;;6.55;6.05;;;10.90;99.90;;;;;;5037638;28;20405;-83
2023/05/02 04:56:00;;;;;;;6.97;6.38;;;10.90;99.90;;;;;;5037899;28;20384;-83
2023/05/02 04:58:26;;;;;;;6.20;5.70;;;10.90;99.90;;;;;;5031623;28;20389;-83
2023/05/02 05:00:51;;;;;;;6.70;6.10;;;10.80;99.90;;;;;;5034834;28;20386;-83
2023/05/02 05:03:17;;;;;;;6.15;5.65;;;10.80;99.90;;;;;;5046262;28;20390;-83
2023/05/02 05:05:42;;;;;;;6.50;6.00;;;10.80;99.90;;;;;;5022854;28;20410;-82
2023/05/02 05:08:08;;;;;;;6.10;5.60;;;10.70;99.90;;;;;;5053087;28;20404;-83
2023/05/02 05:10:34;;;;;;;6.87;6.30;;;10.70;99.90;;;;;;5040253;28;21033;-84
2023/05/02 05:13:00;;;;;;;7.17;5.97;;;10.70;99.90;;;;;;5057651;28;20429;-83
2023/05/02 05:15:26;;;;;;;6.37;5.77;;;10.70;99.90;;;;;;5046476;28;20765;-83
2023/05/02 05:17:51;;;;;;;7.45;6.80;;;10.70;99.90;;;;;;5018078;28;21072;-83
2023/05/02 05:20:17;;;;;;;7.00;6.47;;;10.70;99.90;;;;;;5035794;28;20406;-83
2023/05/02 05:22:43;;;;;;;6.90;6.20;;;10.80;99.90;;;;;;5019490;28;20403;-83
2023/05/02 05:25:09;;;;;;;7.07;6.47;;;10.90;99.90;;;;;;5032865;28;20401;-84
2023/05/02 05:27:36;;;;;;;7.43;6.72;;;10.80;99.90;;;;;;5056766;28;20423;-83
2023/05/02 05:30:05;;;;;;;7.82;7.20;;;10.90;99.90;;;;;;5035754;28;20389;-84
2023/05/02 05:32:32;;;;;;;7.07;6.47;;;11.00;99.90;;;;;;5048247;28;20416;-83
2023/05/02 05:34:58;;;;;;;7.70;7.00;;;10.90;99.90;;;;;;5059449;28;20425;-84
2023/05/02 05:37:23;;;;;;;6.83;6.20;;;11.10;99.90;;;;;;5022944;28;20387;-84
2023/05/02 05:39:49;;;;;;;6.97;6.38;;;11.20;99.90;;;;;;5022821;28;20401;-84
2023/05/02 05:42:14;;;;;;;6.85;6.35;;;11.30;99.90;;;;;;5022261;28;20434;-84
2023/05/02 05:44:40;;;;;;;6.60;6.00;;;11.40;99.90;;;;;;5040522;28;20765;-85
2023/05/02 05:47:05;;;;;;;6.40;5.90;;;11.50;99.90;;;;;;5058098;28;20398;-84
2023/05/02 05:49:31;;;;;;;6.80;6.20;;;11.60;99.90;;;;;;5059802;28;20381;-84
2023/05/02 05:51:58;;;;;;;5.90;5.40;;;11.70;99.90;;;;;;5041553;28;20393;-85
2023/05/02 05:54:23;;;;;;;7.28;6.57;;;11.70;99.90;;;;;;5058682;28;20396;-85
2023/05/02 05:56:49;;;;;;;6.22;5.72;;;11.70;99.90;;;;;;5057859;28;20382;-83
2023/05/02 05:59:15;;;;;;;6.87;6.27;;;11.70;99.90;;;;;;5021699;28;20916;-85
2023/05/02 06:01:40;;;;;;;6.33;5.37;;;11.70;99.90;;;;;;5052122;28;20474;-84
2023/05/02 06:04:06;;;;;;;6.97;5.87;;;11.70;99.90;;;;;;5036628;28;20502;-84
2023/05/02 06:06:32;;;;;;;6.47;5.97;;;11.80;99.90;;;;;;5018233;28;20829;-84
2023/05/02 06:08:58;;;;;;;6.33;5.83;;;11.80;99.90;;;;;;5018469;28;20426;-84
2023/05/02 06:11:24;;;;;;;6.70;6.00;;;12.00;99.90;;;;;;5053497;28;20794;-85
2023/05/02 06:13:51;;;;;;;6.43;5.90;;;12.20;99.90;;;;;;5057900;28;20393;-85
2023/05/02 06:16:19;;;;;;;7.50;6.80;;;12.40;99.90;;;;;;5040483;28;20421;-84
2023/05/02 06:18:45;;;;;;;8.75;7.95;;;12.60;99.90;;;;;;5058519;28;20413;-84
2023/05/02 06:21:11;;;;;;;8.77;7.88;;;12.70;99.90;;;;;;5045252;28;20482;-85
2023/05/02 06:23:37;;;;;;;8.57;7.77;;;12.70;99.90;;;;;;5041924;28;20446;-84
2023/05/02 06:26:03;;;;;;;8.93;8.13;;;12.70;99.90;;;;;;5059130;28;20397;-85
2023/05/02 06:28:30;;;;;;;9.70;8.70;;;12.80;99.90;;;;;;5043479;28;20405;-85
2023/05/02 06:31:00;;;;;;;10.00;9.00;;;12.80;99.90;;;;;;5043967;28;20768;-85
2023/05/02 06:33:26;;;;;;;9.35;8.45;;;12.90;99.90;;;;;;5073176;28;20409;-85
2023/05/02 06:35:52;;;;;;;8.80;8.00;;;13.20;99.90;;;;;;5025036;28;20414;-85
2023/05/02 06:38:18;;;;;;;8.88;8.07;;;13.20;99.90;;;;;;5042880;28;20383;-85
2023/05/02 06:40:44;;;;;;;9.00;8.10;;;13.30;99.90;;;;;;5044436;28;20397;-85
2023/05/02 06:43:10;;;;;;;9.00;8.20;;;13.20;99.90;;;;;;5040878;28;20393;-85
2023/05/02 06:45:36;;;;;;;9.65;8.68;;;13.20;99.90;;;;;;5060827;28;20891;-85
2023/05/02 06:48:01;;;;;;;8.73;7.93;;;13.40;99.90;;;;;;5061590;28;20392;-85
2023/05/02 06:50:28;;;;;;;9.70;8.70;;;13.30;99.90;;;;;;5059052;28;20393;-85
2023/05/02 06:52:53;;;;;;;10.65;9.65;;;13.30;99.90;;;;;;5050053;28;20432;-84
2023/05/02 06:55:19;;;;;;;10.68;9.68;;;13.30;99.90;;;;;;5057567;28;20382;-85
2023/05/02 06:57:45;;;;;;;10.05;9.05;;;13.40;99.90;;;;;;5050897;28;20387;-85
2023/05/02 07:00:11;;;;;;;9.70;8.80;;;13.50;99.90;;;;;;5039816;28;20491;-84
2023/05/02 07:02:37;;;;;;;10.43;9.50;;;13.60;99.90;;;;;;5023253;28;20405;-85
2023/05/02 07:05:03;;;;;;;10.80;9.80;;;13.70;99.90;;;;;;5041017;28;20961;-85
2023/05/02 07:07:29;;;;;;;10.43;9.32;;;13.60;99.90;;;;;;5057677;28;20388;-85
2023/05/02 07:09:54;;;;;;;10.73;9.83;;;13.50;99.90;;;;;;5022293;28;20761;-84
2023/05/02 07:12:20;;;;;;;11.50;10.43;;;13.50;99.90;;;;;;5020231;28;20398;-85
2023/05/02 07:14:46;;;;;;;10.77;9.70;;;13.60;99.90;;;;;;5037400;28;20857;-85
2023/05/02 07:17:11;;;;;;;12.47;11.27;;;13.70;99.90;;;;;;5036198;28;20383;-85
2023/05/02 07:19:37;;;;;;;12.00;10.77;;;13.60;99.90;;;;;;5049064;28;20386;-84
2023/05/02 07:22:02;;;;;;;11.80;10.70;;;13.50;99.90;;;;;;5061198;28;20427;-84
2023/05/02 07:24:28;;;;;;;13.57;12.38;;;13.40;99.90;;;;;;5053482;28;20382;-83
2023/05/02 07:26:54;;;;;;;13.05;11.68;;;13.40;99.90;;;;;;5029377;28;20398;-85
2023/05/02 07:29:19;;;;;;;12.83;11.63;;;13.40;99.90;;;;;;5022408;28;20459;-85
2023/05/02 07:31:45;;;;;;;13.00;11.73;;;13.40;99.90;;;;;;5030153;28;20488;-85
2023/05/02 07:34:10;;;;;;;13.10;11.80;;;13.30;99.90;;;;;;5060106;28;20420;-85
2023/05/02 07:36:36;;;;;;;13.00;11.73;;;13.30;99.90;;;;;;5055940;28;20449;-85
2023/05/02 07:39:02;;;;;;;13.77;12.43;;;13.20;99.90;;;;;;5039910;28;20684;-84
2023/05/02 07:41:27;;;;;;;13.70;12.40;;;13.00;99.90;;;;;;5021260;28;20734;-85
2023/05/02 07:43:53;;;;;;;14.95;13.55;;;13.10;99.90;;;;;;5037905;28;20398;-85
2023/05/02 07:46:18;;;;;;;15.07;13.67;;;13.20;99.90;;;;;;5037733;28;20529;-84
2023/05/02 07:48:44;;;;;;;14.00;12.80;;;13.30;99.90;;;;;;5053842;28;20401;-84
2023/05/02 07:51:10;;;;;;;14.15;12.85;;;13.40;99.90;;;;;;5029493;28;20422;-83
2023/05/02 07:53:35;;;;;;;13.80;12.60;;;13.20;99.90;;;;;;5056319;28;20414;-85
2023/05/02 07:56:05;;;;;;;14.77;13.38;;;13.50;99.90;;;;;;5038830;28;20474;-85
2023/05/02 07:58:31;;;;;;;14.90;13.40;;;13.50;99.90;;;;;;5045161;28;20406;-85
2023/05/02 08:00:57;;;;;;;13.60;12.20;;;13.50;99.90;;;;;;5039313;28;20394;-85
2023/05/02 08:03:22;;;;;;;14.77;13.38;;;13.50;99.90;;;;;;5038014;28;20474;-85
2023/05/02 08:05:48;;;;;;;15.10;13.60;;;13.50;99.90;;;;;;5046327;28;20415;-84
2023/05/02 08:08:13;;;;;;;15.30;13.90;;;13.60;99.90;;;;;;5044874;28;20437;-85
2023/05/02 08:10:39;;;;;;;13.82;12.52;;;13.60;99.90;;;;;;5031389;28;20935;-85
2023/05/02 08:13:05;;;;;;;14.37;12.97;;;13.70;99.90;;;;;;5022818;28;20411;-85
2023/05/02 08:15:30;;;;;;;13.80;12.60;;;13.80;99.90;;;;;;5050078;28;20399;-82
2023/05/02 08:17:56;;;;;;;13.27;11.97;;;13.90;99.90;;;;;;5024058;28;20399;-83
2023/05/02 08:20:21;;;;;;;14.10;12.80;;;14.00;99.90;;;;;;5037940;28;20399;-85
2023/05/02 08:22:47;;;;;;;14.83;13.47;;;14.30;96.30;;;;;;5029432;28;20385;-85
2023/05/02 08:25:12;;;;;;;14.03;12.63;;;14.20;95.70;;;;;;5040890;28;20427;-84
2023/05/02 08:27:38;;;;;;;13.23;12.03;;;14.30;98.50;;;;;;5023852;28;20398;-82
2023/05/02 08:30:04;;;;;;;13.02;11.82;;;14.50;90.90;;;;;;5048314;28;20430;-83
2023/05/02 08:32:31;;;;;;;11.95;10.95;;;14.40;91.30;;;;;;5048063;28;20424;-83
2023/05/02 08:34:57;;;;;;;11.77;10.70;;;14.80;99.90;;;;;;5057808;28;20755;-85
2023/05/02 08:37:22;;;;;;;11.27;10.27;;;15.30;93.90;;;;;;5046943;28;20391;-85
2023/05/02 08:39:48;;;;;;;11.48;10.48;;;15.10;79.50;;;;;;5019221;28;20735;-83
2023/05/02 08:42:14;;;;;;;11.77;10.57;;;15.20;94.30;;;;;;5052516;28;20400;-82
2023/05/02 08:44:39;;;;;;;10.97;10.07;;;15.40;85.60;;;;;;5037528;28;20425;-83
2023/05/02 08:47:09;;;;;;;10.85;9.95;;;15.40;82.20;;;;;;5056778;28;20478;-83
2023/05/02 08:49:35;;;;;;;11.45;10.35;;;15.00;70.20;;;;;;5042290;28;20394;-83
2023/05/02 08:52:02;;;;;;;11.20;10.20;;;14.80;93.60;;;;;;5021301;28;20948;-83
2023/05/02 08:54:28;;;;;;;10.63;9.82;;;14.90;73.90;;;;;;5054033;28;20393;-83
2023/05/02 08:56:53;;;;;;;10.57;9.68;;;14.80;65.70;;;;;;5039071;28;20757;-83
2023/05/02 08:59:19;;;;;;;9.90;9.10;;;14.70;71.70;;;;;;5057047;28;20384;-83
2023/05/02 09:01:51;;;;;;;10.03;9.20;;;14.90;80.20;;;;;;5039452;28;20402;-83
2023/05/02 09:04:22;;;;;;;10.05;9.25;;;15.00;83.40;;;;;;5038036;28;20401;-83
2023/05/02 09:06:48;;;;;;;9.53;8.77;;;15.00;50.90;;;;;;5057306;28;20883;-83
2023/05/02 09:09:13;;;;;;;8.93;8.10;;;14.90;77.80;;;;;;5038853;28;20492;-83
2023/05/02 09:11:40;;;;;;;9.48;8.68;;;15.10;89.90;;;;;;5041060;28;20381;-83
2023/05/02 09:14:14;;;;;;;9.75;8.95;;;14.90;64.70;;;;;;5027978;28;20392;-83
2023/05/02 09:16:39;;;;;;;9.70;8.90;;;15.00;54.70;;;;;;5045900;28;20383;-83
2023/05/02 09:19:05;;;;;;;9.87;9.07;;;14.80;57.80;;;;;;5027679;28;20397;-83
2023/05/02 09:21:41;;;;;;;8.80;8.00;;;15.10;63.20;;;;;;5047416;28;20462;-83
2023/05/02 09:24:20;;;;;;;9.70;8.80;;;15.40;54.70;;;;;;5060743;28;20867;-83
2023/05/02 09:27:03;;;;;;;8.63;7.93;;;15.50;46.90;;;;;;5043741;28;20389;-83
2023/05/02 09:29:34;;;;;;;9.30;8.50;;;15.50;46.10;;;;;;5061591;28;20400;-82
2023/05/02 09:32:01;;;;;;;8.87;7.97;;;15.50;47.40;;;;;;5030368;28;20478;-82
2023/05/02 09:34:27;;;;;;;8.95;8.15;;;15.60;48.40;;;;;;5029027;28;20394;-82
2023/05/02 09:36:52;;;;;;;7.90;7.27;;;16.00;35.90;;;;;;5043682;28;20383;-84
2023/05/02 09:39:28;;;;;;;8.60;7.78;;;15.70;29.60;;;;;;5026850;28;20392;-82
2023/05/02 09:41:54;;;;;;;8.55;7.80;;;15.60;33.30;;;;;;5038236;28;20393;-81
2023/05/02 09:44:21;;;;;;;7.50;6.90;;;15.60;33.00;;;;;;5043590;28;20386;-81
2023/05/02 09:46:52;;;;;;;8.40;7.60;;;16.00;39.90;;;;;;5061438;28;20386;-82
2023/05/02 09:49:18;;;;;;;8.27;7.57;;;16.00;40.70;;;;;;5047929;28;20402;-84
2023/05/02 09:51:48;;;;;;;9.10;8.30;;;16.00;30.90;;;;;;5039912;28;20458;-83
2023/05/02 09:54:34;;;;;;;9.18;8.38;;;16.00;33.80;;;;;;5021825;28;20392;-83
2023/05/02 09:57:00;;;;;;;10.05;9.05;;;15.80;31.70;;;;;;5040853;28;20413;-82
2023/05/02 09:59:29;;;;;;;10.43;9.55;;;15.60;34.90;;;;;;5040753;28;20402;-83
2023/05/02 10:02:02;;;;;;;9.30;8.60;;;15.70;36.40;;;;;;5040357;28;20407;-84
2023/05/02 10:04:31;;;;;;;9.50;8.60;;;15.60;32.50;;;;;;5039982;28;20437;-83
2023/05/02 10:06:57;;;;;;;8.20;7.50;;;15.80;34.90;;;;;;5040260;28;20406;-84
2023/05/02 10:09:24;;;;;;;9.55;8.75;;;15.60;32.70;;;;;;5046222;28;20387;-80
2023/05/02 10:11:54;;;;;;;9.25;8.45;;;15.60;34.80;;;;;;5051668;28;20465;-82
2023/05/02 10:14:22;;;;;;;8.45;7.65;;;15.80;29.60;;;;;;5043638;28;20474;-82
2023/05/02 10:17:15;;;;;;;8.18;7.40;;;15.70;28.80;;;;;;5040648;28;20383;-83
2023/05/02 10:20:02;;;;;;;8.30;7.60;;;15.80;28.40;;;;;;5041126;28;20390;-83
2023/05/02 10:22:29;;;;;;;7.93;7.22;;;16.00;29.10;;;;;;5041406;28;20470;-83
2023/05/02 10:24:58;;;;;;;8.20;7.50;;;16.00;31.40;;;;;;5023131;28;20841;-81
2023/05/02 10:27:24;;;;;;;8.30;7.53;;;16.40;28.00;;;;;;5041157;28;20387;-83
2023/05/02 10:29:50;;;;;;;7.72;7.03;;;16.50;31.10;;;;;;5022016;28;20387;-82
2023/05/02 10:32:17;;;;;;;8.20;7.50;;;16.50;28.50;;;;;;5041128;28;20415;-83
2023/05/02 10:34:43;;;;;;;8.60;7.90;;;16.50;19.20;;;;;;5025605;28;20434;-83
2023/05/02 10:37:11;;;;;;;8.10;7.40;;;16.40;21.80;;;;;;5039156;28;20391;-84
2023/05/02 10:39:37;;;;;;;7.70;7.10;;;16.20;22.80;;;;;;5022264;28;20386;-83
2023/05/02 10:42:04;;;;;;;7.88;7.18;;;16.60;19.60;;;;;;5022736;28;20399;-84
2023/05/02 10:44:40;;;;;;;8.20;7.40;;;16.60;26.50;;;;;;5024131;28;20395;-82
2023/05/02 10:47:22;;;;;;;7.80;7.10;;;17.00;23.80;;;;;;5039949;28;20387;-82
2023/05/02 10:50:00;;;;;;;9.18;8.38;;;17.50;15.40;;;;;;5022616;28;20394;-82
2023/05/02 10:52:30;;;;;;;8.40;7.70;;;17.40;10.80;;;;;;5021466;28;20410;-83
2023/05/02 10:55:20;;;;;;;8.30;7.50;;;17.10;9.60;;;;;;5032161;28;20428;-84
2023/05/02 10:57:57;;;;;;;9.48;8.20;;;17.00;12.00;;;;;;5032001;28;20375;-84
2023/05/02 11:00:25;;;;;;;8.50;7.70;;;17.40;10.70;;;;;;5053353;28;20409;-84
2023/05/02 11:02:51;;;;;;;9.13;7.82;;;17.30;7.80;;;;;;5038095;28;20382;-82
2023/05/02 11:05:17;;;;;;;8.73;7.93;;;17.20;9.60;;;;;;5037388;28;20379;-82
2023/05/02 11:07:42;;;;;;;8.50;7.70;;;17.30;8.70;;;;;;5020535;28;20547;-83
2023/05/02 11:10:17;;;;;;;8.53;7.73;;;17.60;5.90;;;;;;5019315;28;20422;-82
2023/05/02 11:12:49;;;;;;;8.70;8.00;;;17.40;3.50;;;;;;5018725;28;20438;-83
2023/05/02 11:15:41;;;;;;;8.32;7.53;;;18.00;1.80;;;;;;5018689;28;20392;-83
2023/05/02 11:18:13;;;;;;;9.77;8.87;;;18.30;4.30;;;;;;5031503;28;20493;-82
2023/05/02 11:20:43;;;;;;;9.30;8.60;;;18.60;1.00;;;;;;5037190;28;20458;-83
2023/05/02 11:23:20;;;;;;;12.00;11.00;;;18.60;1.00;;;;;;5038789;28;20390;-85
2023/05/02 11:25:52;;;;;;;13.02;11.82;;;18.50;4.20;;;;;;5074567;28;20412;-82
2023/05/02 11:28:36;;;;;;;12.30;11.30;;;18.00;4.90;;;;;;5042766;28;20410;-80
2023/05/02 11:31:28;;;;;;;12.75;11.75;;;17.30;9.60;;;;;;5029124;28;20452;-83
2023/05/02 11:33:58;;;;;;;12.00;11.00;;;17.00;12.10;;;;;;5025451;28;20411;-83
2023/05/02 11:36:32;;;;;;;11.82;10.73;;;16.70;11.80;;;;;;5028225;28;20925;-83
2023/05/02 11:39:02;;;;;;;11.43;10.43;;;17.00;11.40;;;;;;5060873;28;20389;-85
2023/05/02 11:41:40;;;;;;;11.07;10.07;;;17.90;5.30;;;;;;5060455;28;21187;-81
2023/05/02 11:44:06;;;;;;;10.73;9.10;;;19.00;1.00;;;;;;5056200;28;20429;-84
2023/05/02 11:46:32;;;;;;;9.55;8.75;;;19.40;1.00;;;;;;5039866;28;20404;-83
2023/05/02 11:48:59;;;;;;;8.40;7.70;;;20.10;1.00;;;;;;5042379;28;20420;-82
2023/05/02 11:51:25;;;;;;;9.45;8.65;;;19.10;1.00;;;;;;5049119;28;20480;-85
2023/05/02 11:53:51;;;;;;;9.38;8.57;;;18.80;1.00;;;;;;5067350;28;20474;-81
2023/05/02 11:56:23;;;;;;;10.15;9.25;;;18.90;1.00;;;;;;5045794;28;20497;-85
2023/05/02 11:58:58;;;;;;;8.40;7.60;;;19.30;1.00;;;;;;5038684;28;20390;-85
2023/05/02 12:01:24;;;;;;;8.93;8.23;;;19.90;1.00;;;;;;5059488;28;20388;-84
2023/05/02 12:03:51;;;;;;;7.78;7.18;;;20.20;1.00;;;;;;5042888;28;20420;-84
2023/05/02 12:06:20;;;;;;;7.40;6.80;;;20.10;1.00;;;;;;5059857;28;20401;-85
2023/05/02 12:08:45;;;;;;;8.30;7.60;;;20.30;1.00;;;;;;5060605;28;20397;-82
2023/05/02 12:11:15;;;;;;;8.00;7.30;;;20.00;1.00;;;;;;5053679;28;20397;-83
2023/05/02 12:13:46;;;;;;;7.45;6.75;;;20.30;1.00;;;;;;5044403;28;20407;-83
2023/05/02 12:16:12;;;;;;;7.90;7.30;;;20.70;1.00;;;;;;5056788;28;20382;-82
2023/05/02 12:18:38;;;;;;;7.35;6.75;;;21.20;1.00;;;;;;5061586;28;20463;-82
2023/05/02 12:21:05;;;;;;;7.00;6.30;;;21.60;1.00;;;;;;5041479;28;20409;-83
2023/05/02 12:23:30;;;;;;;6.53;5.95;;;21.80;1.00;;;;;;5041194;28;20401;-84
2023/05/02 12:25:57;;;;;;;6.50;5.90;;;21.50;1.00;;;;;;5047462;28;20427;-83
2023/05/02 12:28:22;;;;;;;5.80;5.30;;;21.50;1.00;;;;;;5020109;28;20387;-83
2023/05/02 12:30:50;;;;;;;6.60;6.10;;;21.80;1.00;;;;;;5019741;28;20387;-83
2023/05/02 12:33:16;;;;;;;6.75;6.15;;;21.10;1.00;;;;;;5019759;28;20426;-82
2023/05/02 12:35:44;;;;;;;6.10;5.60;;;21.70;1.00;;;;;;5022408;28;20447;-83
2023/05/02 12:38:19;;;;;;;6.18;5.75;;;21.90;1.00;;;;;;5038899;28;20391;-82
2023/05/02 12:40:56;;;;;;;7.88;7.18;;;21.90;1.00;;;;;;5038630;28;20379;-81
2023/05/02 12:43:22;;;;;;;7.10;6.60;;;20.60;1.00;;;;;;5038295;28;20938;-83
2023/05/02 12:45:48;;;;;;;6.85;6.28;;;21.00;1.00;;;;;;5023267;28;20433;-83
2023/05/02 12:48:17;;;;;;;7.90;7.30;;;21.90;1.00;;;;;;5057095;28;20393;-81
2023/05/02 12:50:43;;;;;;;8.30;7.60;;;21.10;1.00;;;;;;5038196;28;20386;-82